createdAt,value
2023-03-30T00:01:03.813Z,17.70
2023-03-30T00:03:31.176Z,17.90
2023-03-30T00:06:05.314Z,18.20
2023-03-30T00:08:33.563Z,18.80
2023-03-30T00:11:06.060Z,18.50
2023-03-30T00:13:34.879Z,18.20
2023-03-30T00:16:02.371Z,18.50
2023-03-30T00:18:34.312Z,18.70
2023-03-30T00:21:02.981Z,18.50
2023-03-30T00:23:30.456Z,18.80
2023-03-30T00:25:57.457Z,18.50
2023-03-30T00:28:26.295Z,17.60
2023-03-30T00:30:54.107Z,17.20
2023-03-30T00:33:30.406Z,16.70
2023-03-30T00:36:04.775Z,16.20
2023-03-30T00:38:31.941Z,16.30
2023-03-30T00:41:00.875Z,16.30
2023-03-30T00:43:28.822Z,17.30
2023-03-30T00:45:59.010Z,17.10
2023-03-30T00:48:36.382Z,16.50
2023-03-30T00:51:05.454Z,15.90
2023-03-30T00:53:36.748Z,15.30
2023-03-30T00:56:07.748Z,14.80
2023-03-30T01:01:07.095Z,12.40
2023-03-30T01:03:39.099Z,12.50
2023-03-30T01:06:10.312Z,12.10
2023-03-30T01:08:37.728Z,10.90
2023-03-30T01:11:06.834Z,11.10
2023-03-30T01:13:40.271Z,11.40
2023-03-30T01:16:49.257Z,10.80
2023-03-30T01:20:12.877Z,8.30
2023-03-30T01:23:33.418Z,5.40
2023-03-30T01:26:31.948Z,3.60
2023-03-30T01:29:10.390Z,2.10
2023-03-30T01:32:10.472Z,1.00
2023-03-30T01:34:58.019Z,1.00
2023-03-30T01:38:26.158Z,1.00
2023-03-30T01:41:12.671Z,1.00
2023-03-30T01:44:00.805Z,1.00
2023-03-30T01:46:40.563Z,1.20
2023-03-30T01:49:25.171Z,1.00
2023-03-30T01:52:22.120Z,1.00
2023-03-30T01:54:55.345Z,1.00
2023-03-30T01:57:42.649Z,1.00
2023-03-30T02:00:15.465Z,1.00
2023-03-30T02:02:48.870Z,1.00
2023-03-30T02:05:19.222Z,1.00
2023-03-30T02:08:04.726Z,1.00
2023-03-30T02:10:35.316Z,1.00
2023-03-30T02:13:04.452Z,1.00
2023-03-30T02:15:39.061Z,1.00
2023-03-30T02:18:06.405Z,1.00
2023-03-30T02:20:34.591Z,1.00
2023-03-30T02:23:03.584Z,1.00
2023-03-30T02:25:30.518Z,1.00
2023-03-30T02:27:57.486Z,1.00
2023-03-30T02:30:24.778Z,1.00
2023-03-30T02:32:56.611Z,1.00
2023-03-30T02:35:58.186Z,1.00
2023-03-30T02:39:27.078Z,1.00
2023-03-30T02:42:33.041Z,1.00
2023-03-30T02:45:27.413Z,1.00
2023-03-30T02:48:41.700Z,1.00
2023-03-30T02:51:41.912Z,1.00
2023-03-30T02:54:23.950Z,1.00
2023-03-30T02:57:04.048Z,1.00
2023-03-30T02:59:37.531Z,1.00
2023-03-30T03:02:15.945Z,1.00
2023-03-30T03:04:43.715Z,1.00
2023-03-30T03:07:12.931Z,1.00
2023-03-30T03:09:40.264Z,1.00
2023-03-30T03:12:07.788Z,1.00
2023-03-30T03:14:34.673Z,1.00
2023-03-30T03:17:01.647Z,1.00
2023-03-30T03:19:28.558Z,1.00
2023-03-30T03:21:55.471Z,1.00
2023-03-30T03:24:22.361Z,1.00
2023-03-30T03:26:50.184Z,1.00
2023-03-30T03:29:17.046Z,1.00
2023-03-30T03:31:44.266Z,1.00
2023-03-30T03:34:11.401Z,1.00
2023-03-30T03:36:38.717Z,1.00
2023-03-30T03:39:05.788Z,1.00
2023-03-30T03:41:32.822Z,1.00
2023-03-30T03:43:59.658Z,1.00
2023-03-30T03:46:26.625Z,1.00
2023-03-30T03:48:53.525Z,1.00
2023-03-30T03:51:20.589Z,1.00
2023-03-30T03:53:49.773Z,1.00
2023-03-30T03:56:16.701Z,1.00
2023-03-30T03:58:43.641Z,1.00
2023-03-30T04:01:10.711Z,1.00
2023-03-30T04:03:37.627Z,1.00
2023-03-30T04:06:04.627Z,1.00
2023-03-30T04:08:31.578Z,1.00
2023-03-30T04:11:08.192Z,1.00
2023-03-30T04:13:36.900Z,1.00
2023-03-30T04:16:03.930Z,1.00
2023-03-30T04:18:34.079Z,1.00
2023-03-30T04:21:03.374Z,1.00
2023-03-30T04:23:34.776Z,1.00
2023-03-30T04:26:05.857Z,1.00
2023-03-30T04:28:33.891Z,1.00
2023-03-30T04:31:03.442Z,1.00
2023-03-30T04:33:37.290Z,1.00
2023-03-30T04:36:05.486Z,1.00
2023-03-30T04:38:32.893Z,1.00
2023-03-30T04:41:04.167Z,1.00
2023-03-30T04:43:31.574Z,1.00
2023-03-30T04:45:58.535Z,1.00
2023-03-30T04:48:25.541Z,1.00
2023-03-30T04:50:54.443Z,1.00
2023-03-30T04:53:23.169Z,1.00
2023-03-30T04:55:53.894Z,1.00
2023-03-30T04:58:21.063Z,1.00
2023-03-30T05:00:48.024Z,1.00
2023-03-30T05:03:15.177Z,1.00
2023-03-30T05:05:42.364Z,1.00
2023-03-30T05:08:09.360Z,1.00
2023-03-30T05:10:36.308Z,1.00
2023-03-30T05:13:03.172Z,1.00
2023-03-30T05:15:30.070Z,1.00
2023-03-30T05:17:57.585Z,1.00
2023-03-30T05:20:25.226Z,1.00
2023-03-30T05:22:53.763Z,1.00
2023-03-30T05:25:20.937Z,1.00
2023-03-30T05:27:47.813Z,1.00
2023-03-30T05:30:15.305Z,1.00
2023-03-30T05:32:43.106Z,1.00
2023-03-30T05:35:12.139Z,1.00
2023-03-30T05:37:40.483Z,1.00
2023-03-30T05:40:10.266Z,1.00
2023-03-30T05:42:38.449Z,1.00
2023-03-30T05:45:06.206Z,1.00
2023-03-30T05:47:33.134Z,1.00
2023-03-30T05:50:00.056Z,1.00
2023-03-30T05:52:27.678Z,1.00
2023-03-30T05:54:54.533Z,1.00
2023-03-30T05:57:21.605Z,1.00
2023-03-30T05:59:48.574Z,1.00
2023-03-30T06:02:17.834Z,1.00
2023-03-30T06:04:44.840Z,1.00
2023-03-30T06:07:12.049Z,1.00
2023-03-30T06:09:40.440Z,1.00
2023-03-30T06:12:07.710Z,1.00
2023-03-30T06:14:34.576Z,1.00
2023-03-30T06:17:01.774Z,1.00
2023-03-30T06:19:28.720Z,1.00
2023-03-30T06:21:55.815Z,1.00
2023-03-30T06:24:22.863Z,1.00
2023-03-30T06:26:50.015Z,1.00
2023-03-30T06:29:16.990Z,1.00
2023-03-30T06:31:44.245Z,1.00
2023-03-30T06:34:11.177Z,1.00
2023-03-30T06:36:44.533Z,1.00
2023-03-30T06:39:13.524Z,1.00
2023-03-30T06:41:40.659Z,1.00
2023-03-30T06:44:10.441Z,1.00
2023-03-30T06:46:39.698Z,1.00
2023-03-30T06:49:06.689Z,1.00
2023-03-30T06:51:36.767Z,1.00
2023-03-30T06:54:04.058Z,1.00
2023-03-30T06:56:31.419Z,1.00
2023-03-30T06:58:59.098Z,1.00
2023-03-30T07:01:26.037Z,1.00
2023-03-30T07:03:53.596Z,1.00
2023-03-30T07:06:21.285Z,1.00
2023-03-30T07:08:49.153Z,1.00
2023-03-30T07:11:16.137Z,1.00
2023-03-30T07:13:43.225Z,1.00
2023-03-30T07:16:10.191Z,1.00
2023-03-30T07:18:37.166Z,1.00
2023-03-30T07:21:05.084Z,1.00
2023-03-30T07:23:32.454Z,1.00
2023-03-30T07:25:59.375Z,1.00
2023-03-30T07:28:26.421Z,1.00
2023-03-30T07:30:53.525Z,1.00
2023-03-30T07:33:22.104Z,1.00
2023-03-30T07:35:50.139Z,1.00
2023-03-30T07:38:17.469Z,1.00
2023-03-30T07:40:44.630Z,1.00
2023-03-30T07:43:11.836Z,1.00
2023-03-30T07:45:39.817Z,1.00
2023-03-30T07:48:07.143Z,1.00
2023-03-30T07:50:34.757Z,1.00
2023-03-30T07:53:01.809Z,1.00
2023-03-30T07:55:32.023Z,1.00
2023-03-30T07:57:59.039Z,1.00
2023-03-30T08:00:26.113Z,1.00
2023-03-30T08:02:53.491Z,1.00
2023-03-30T08:05:20.618Z,1.00
2023-03-30T08:07:47.784Z,1.00
2023-03-30T08:10:14.708Z,1.00
2023-03-30T08:12:41.655Z,1.00
2023-03-30T08:15:09.612Z,1.00
2023-03-30T08:17:36.546Z,1.00
2023-03-30T08:20:04.855Z,1.00
2023-03-30T08:22:31.887Z,1.00
2023-03-30T08:24:59.036Z,1.00
2023-03-30T08:27:26.001Z,1.00
2023-03-30T08:29:56.938Z,1.00
2023-03-30T08:32:24.063Z,1.00
2023-03-30T08:34:51.237Z,1.00
2023-03-30T08:37:19.734Z,1.00
2023-03-30T08:39:46.785Z,1.00
2023-03-30T08:42:59.507Z,1.00
2023-03-30T08:45:36.911Z,1.00
2023-03-30T08:48:06.560Z,1.00
2023-03-30T08:50:37.478Z,4.90
2023-03-30T08:53:06.532Z,8.70
2023-03-30T08:55:43.545Z,13.30
2023-03-30T08:58:43.301Z,13.00
2023-03-30T09:01:35.978Z,6.50
2023-03-30T09:04:19.884Z,1.00
2023-03-30T09:07:23.555Z,1.00
2023-03-30T09:09:55.591Z,1.00
2023-03-30T09:12:41.803Z,1.00
2023-03-30T09:15:16.845Z,1.00
2023-03-30T09:17:52.128Z,1.00
2023-03-30T09:20:26.097Z,3.70
2023-03-30T09:22:55.366Z,7.90
2023-03-30T09:25:36.217Z,11.30
2023-03-30T09:28:09.605Z,14.70
2023-03-30T09:30:41.858Z,7.60
2023-03-30T09:33:27.234Z,7.60
2023-03-30T09:36:23.823Z,5.00
2023-03-30T09:38:52.146Z,3.20
2023-03-30T09:41:39.278Z,2.80
2023-03-30T09:44:16.284Z,1.00
2023-03-30T09:46:43.623Z,1.00
2023-03-30T09:49:16.488Z,1.00
2023-03-30T09:52:00.937Z,1.00
2023-03-30T09:54:39.079Z,1.00
2023-03-30T09:57:06.812Z,1.00
2023-03-30T09:59:37.154Z,1.00
2023-03-30T10:02:34.151Z,1.00
2023-03-30T10:05:02.680Z,1.00
2023-03-30T10:07:36.543Z,1.00
2023-03-30T10:10:29.286Z,1.00
2023-03-30T10:13:03.511Z,1.00
2023-03-30T10:15:33.335Z,1.00
2023-03-30T10:18:26.814Z,1.00
2023-03-30T10:21:15.373Z,1.00
2023-03-30T10:23:58.463Z,2.10
2023-03-30T10:26:30.653Z,3.90
2023-03-30T10:29:03.538Z,12.90
2023-03-30T10:31:33.782Z,17.60
2023-03-30T10:34:02.796Z,15.20
2023-03-30T10:36:33.824Z,11.70
2023-03-30T10:39:12.798Z,9.70
2023-03-30T10:41:41.644Z,7.70
2023-03-30T10:44:21.662Z,1.00
2023-03-30T10:46:51.830Z,1.00
2023-03-30T10:49:57.574Z,1.00
2023-03-30T10:52:56.277Z,1.00
2023-03-30T10:56:03.122Z,1.00
2023-03-30T10:58:51.139Z,1.00
2023-03-30T11:01:47.169Z,1.00
2023-03-30T11:04:38.018Z,1.00
2023-03-30T11:07:12.586Z,1.00
2023-03-30T11:12:39.347Z,1.00
2023-03-30T11:15:33.439Z,1.00
2023-03-30T11:18:22.180Z,1.00
2023-03-30T11:21:13.960Z,2.80
2023-03-30T11:24:19.965Z,4.70
2023-03-30T11:27:11.127Z,3.50
2023-03-30T11:30:06.255Z,3.60
2023-03-30T11:32:58.757Z,1.00
2023-03-30T11:36:17.753Z,1.00
2023-03-30T11:39:03.963Z,1.00
2023-03-30T11:41:50.733Z,1.00
2023-03-30T11:44:18.550Z,1.00
2023-03-30T11:47:38.210Z,1.00
2023-03-30T11:50:25.664Z,1.00
2023-03-30T11:53:27.985Z,1.00
2023-03-30T11:56:19.618Z,1.00
2023-03-30T11:58:49.068Z,1.00
2023-03-30T12:01:53.804Z,1.00
2023-03-30T12:04:44.106Z,1.00
2023-03-30T12:07:27.016Z,1.00
2023-03-30T12:10:04.722Z,1.00
2023-03-30T12:12:36.574Z,1.00
2023-03-30T12:16:00.761Z,1.00
2023-03-30T12:19:03.442Z,1.00
2023-03-30T12:21:33.902Z,1.00
2023-03-30T12:24:51.383Z,1.00
2023-03-30T12:27:18.500Z,1.00
2023-03-30T12:30:02.635Z,1.00
2023-03-30T12:32:34.953Z,1.00
2023-03-30T12:35:02.016Z,1.00
2023-03-30T12:37:34.730Z,1.00
2023-03-30T12:40:20.782Z,1.00
2023-03-30T12:43:17.451Z,1.00
2023-03-30T12:46:02.875Z,1.00
2023-03-30T12:48:41.960Z,1.00
2023-03-30T12:51:23.238Z,1.00
2023-03-30T12:54:33.888Z,1.00
2023-03-30T12:57:56.284Z,1.00
2023-03-30T13:00:44.786Z,1.00
2023-03-30T13:03:55.228Z,1.00
2023-03-30T13:06:50.957Z,1.00
2023-03-30T13:09:59.945Z,1.00
2023-03-30T13:12:42.198Z,1.00
2023-03-30T13:15:35.830Z,1.00
2023-03-30T13:18:23.233Z,1.00
2023-03-30T13:21:17.578Z,1.00
2023-03-30T13:23:58.033Z,1.00
2023-03-30T13:26:34.903Z,1.00
2023-03-30T13:29:12.320Z,1.00
2023-03-30T13:32:20.830Z,1.00
2023-03-30T13:35:23.318Z,1.00
2023-03-30T13:38:16.901Z,1.00
2023-03-30T13:41:09.687Z,1.00
2023-03-30T13:44:15.816Z,7.40
2023-03-30T13:47:21.630Z,33.30
2023-03-30T13:50:04.182Z,53.90
2023-03-30T13:52:38.611Z,75.00
2023-03-30T13:55:18.059Z,84.60
2023-03-30T13:57:45.318Z,81.80
2023-03-30T14:00:39.853Z,47.30
2023-03-30T14:03:33.617Z,35.00
2023-03-30T14:06:04.262Z,31.10
2023-03-30T14:08:40.760Z,23.80
2023-03-30T14:11:38.210Z,21.20
2023-03-30T14:14:06.682Z,21.70
2023-03-30T14:16:36.791Z,19.60
2023-03-30T14:19:22.391Z,12.80
2023-03-30T14:21:52.388Z,8.80
2023-03-30T14:24:28.469Z,10.20
2023-03-30T14:27:02.006Z,9.40
2023-03-30T14:29:31.680Z,3.80
2023-03-30T14:32:09.142Z,3.30
2023-03-30T14:34:37.564Z,4.10
2023-03-30T14:37:07.884Z,3.10
2023-03-30T14:39:46.999Z,2.80
2023-03-30T14:42:19.121Z,4.10
2023-03-30T14:44:51.668Z,2.30
2023-03-30T14:47:21.483Z,1.00
2023-03-30T14:49:50.793Z,1.00
2023-03-30T14:52:21.605Z,1.00
2023-03-30T14:55:01.829Z,1.00
2023-03-30T14:57:36.761Z,1.00
2023-03-30T15:00:21.200Z,1.00
2023-03-30T15:02:58.965Z,1.00
2023-03-30T15:05:32.457Z,1.00
2023-03-30T15:07:59.483Z,6.90
2023-03-30T15:10:46.261Z,10.90
2023-03-30T15:13:39.290Z,12.30
2023-03-30T15:16:07.530Z,16.80
2023-03-30T15:18:36.550Z,17.00
2023-03-30T15:21:04.249Z,14.70
2023-03-30T15:23:40.936Z,15.00
2023-03-30T15:26:09.818Z,17.00
2023-03-30T15:29:04.480Z,15.70
2023-03-30T15:31:31.739Z,15.50
2023-03-30T15:34:02.161Z,16.60
2023-03-30T15:36:40.054Z,16.60
2023-03-30T15:39:21.823Z,18.30
2023-03-30T15:42:00.891Z,21.30
2023-03-30T15:44:28.895Z,24.40
2023-03-30T15:46:57.763Z,26.30
2023-03-30T15:49:41.837Z,23.70
2023-03-30T15:52:14.269Z,24.20
2023-03-30T15:54:50.731Z,21.10
2023-03-30T15:57:21.681Z,21.90
2023-03-30T15:59:58.206Z,17.10
2023-03-30T16:02:46.419Z,18.20
2023-03-30T16:05:21.770Z,20.00
2023-03-30T16:07:49.147Z,11.90
2023-03-30T16:10:21.111Z,7.50
2023-03-30T16:12:48.815Z,6.80
2023-03-30T16:15:20.980Z,5.90
2023-03-30T16:17:48.040Z,5.40
2023-03-30T16:20:23.542Z,7.40
2023-03-30T16:22:50.804Z,12.60
2023-03-30T16:25:21.284Z,18.10
2023-03-30T16:27:49.718Z,28.40
2023-03-30T16:30:21.874Z,36.30
2023-03-30T16:32:49.207Z,42.70
2023-03-30T16:35:16.372Z,41.30
2023-03-30T16:37:43.381Z,31.70
2023-03-30T16:40:26.006Z,28.60
2023-03-30T16:42:53.021Z,24.40
2023-03-30T16:45:19.925Z,22.10
2023-03-30T16:47:47.435Z,20.10
2023-03-30T16:50:25.332Z,20.00
2023-03-30T16:52:52.308Z,18.90
2023-03-30T16:55:19.405Z,21.90
2023-03-30T16:57:46.527Z,25.80
2023-03-30T17:00:36.611Z,28.10
2023-03-30T17:03:05.772Z,32.80
2023-03-30T17:05:33.208Z,38.50
2023-03-30T17:08:05.863Z,40.00
2023-03-30T17:10:36.524Z,41.80
2023-03-30T17:13:03.989Z,45.30
2023-03-30T17:15:31.746Z,48.30
2023-03-30T17:17:58.743Z,53.30
2023-03-30T17:20:41.660Z,57.10
2023-03-30T17:23:10.651Z,59.50
2023-03-30T17:25:40.013Z,63.30
2023-03-30T17:28:09.107Z,65.80
2023-03-30T17:30:40.577Z,69.40
2023-03-30T17:33:12.858Z,72.00
2023-03-30T17:35:40.709Z,74.70
2023-03-30T17:38:11.729Z,73.60
2023-03-30T17:40:39.030Z,73.60
2023-03-30T17:43:07.858Z,73.30
2023-03-30T17:45:35.673Z,73.40
2023-03-30T17:48:03.946Z,76.40
2023-03-30T17:50:39.582Z,77.30
2023-03-30T17:53:06.523Z,77.60
2023-03-30T17:55:34.067Z,86.10
2023-03-30T17:58:01.023Z,93.30
2023-03-30T18:00:33.753Z,99.90
2023-03-30T18:03:01.175Z,99.90
2023-03-30T18:05:31.085Z,99.90
2023-03-30T18:07:58.130Z,99.90
2023-03-30T18:10:28.386Z,99.90
2023-03-30T18:12:55.641Z,99.90
2023-03-30T18:15:31.082Z,99.90
2023-03-30T18:17:59.513Z,99.90
2023-03-30T18:20:44.731Z,99.90
2023-03-30T18:23:11.734Z,99.90
2023-03-30T18:25:38.862Z,99.90
2023-03-30T18:28:13.913Z,99.90
2023-03-30T18:30:41.041Z,99.90
2023-03-30T18:33:08.431Z,99.90
2023-03-30T18:35:37.094Z,99.90
2023-03-30T18:38:05.633Z,99.90
2023-03-30T18:40:38.323Z,99.90
2023-03-30T18:43:05.948Z,99.90
2023-03-30T18:45:39.060Z,99.90
2023-03-30T18:48:08.682Z,99.90
2023-03-30T18:50:43.728Z,99.90
2023-03-30T18:53:13.175Z,99.90
2023-03-30T18:55:43.393Z,99.90
2023-03-30T18:58:33.674Z,99.90
2023-03-30T19:01:01.534Z,99.90
2023-03-30T19:03:30.106Z,99.90
2023-03-30T19:05:57.325Z,99.90
2023-03-30T19:08:26.125Z,99.90
2023-03-30T19:10:55.528Z,99.90
2023-03-30T19:13:24.125Z,99.90
2023-03-30T19:15:52.390Z,99.90
2023-03-30T19:18:20.330Z,99.90
2023-03-30T19:21:02.220Z,99.90
2023-03-30T19:23:29.677Z,99.90
2023-03-30T19:25:56.718Z,99.70
2023-03-30T19:28:23.734Z,98.10
2023-03-30T19:30:50.943Z,97.80
2023-03-30T19:33:19.951Z,98.30
2023-03-30T19:35:47.019Z,99.70
2023-03-30T19:38:15.027Z,99.90
2023-03-30T19:40:42.690Z,99.90
2023-03-30T19:43:10.388Z,99.90
2023-03-30T19:45:37.728Z,99.90
2023-03-30T19:48:05.194Z,99.90
2023-03-30T19:50:32.255Z,99.90
2023-03-30T19:52:59.775Z,99.90
2023-03-30T19:55:27.142Z,99.90
2023-03-30T19:57:54.121Z,99.90
2023-03-30T20:00:22.358Z,99.90
2023-03-30T20:02:52.464Z,99.90
2023-03-30T20:05:21.173Z,99.90
2023-03-30T20:07:48.722Z,99.90
2023-03-30T20:10:19.164Z,99.90
2023-03-30T20:12:47.006Z,99.90
2023-03-30T20:15:14.650Z,99.90
2023-03-30T20:17:42.355Z,99.90
2023-03-30T20:20:12.789Z,99.90
2023-03-30T20:22:43.806Z,99.90
2023-03-30T20:25:13.643Z,99.90
2023-03-30T20:27:41.019Z,99.90
2023-03-30T20:30:09.232Z,99.30
2023-03-30T20:32:36.966Z,98.10
2023-03-30T20:35:08.038Z,96.90
2023-03-30T20:37:34.989Z,96.20
2023-03-30T20:40:06.573Z,96.00
2023-03-30T20:42:33.542Z,96.40
2023-03-30T20:45:01.414Z,96.60
2023-03-30T20:47:31.091Z,95.60
2023-03-30T20:49:59.085Z,94.70
2023-03-30T20:52:26.939Z,94.20
2023-03-30T20:54:54.548Z,94.20
2023-03-30T20:57:22.098Z,93.90
2023-03-30T20:59:49.762Z,93.70
2023-03-30T21:02:17.141Z,92.90
2023-03-30T21:04:44.772Z,92.30
2023-03-30T21:07:12.446Z,91.70
2023-03-30T21:09:40.109Z,90.50
2023-03-30T21:12:08.769Z,90.20
2023-03-30T21:14:36.109Z,88.90
2023-03-30T21:17:04.516Z,87.40
2023-03-30T21:19:31.592Z,87.10
2023-03-30T21:22:00.405Z,83.50
2023-03-30T21:24:28.010Z,79.10
2023-03-30T21:26:54.993Z,77.80
2023-03-30T21:29:22.921Z,78.90
2023-03-30T21:31:50.712Z,79.90
2023-03-30T21:34:18.899Z,78.60
2023-03-30T21:36:46.407Z,76.90
2023-03-30T21:39:13.769Z,75.60
2023-03-30T21:41:40.766Z,75.70
2023-03-30T21:44:08.199Z,76.40
2023-03-30T21:46:35.149Z,75.20
2023-03-30T21:49:02.109Z,76.60
2023-03-30T21:51:30.526Z,75.00
2023-03-30T21:53:58.093Z,75.70
2023-03-30T21:56:29.117Z,75.10
2023-03-30T21:58:56.402Z,74.40
2023-03-30T22:01:24.393Z,75.90
2023-03-30T22:03:52.951Z,74.30
2023-03-30T22:06:20.595Z,73.20
2023-03-30T22:08:48.114Z,73.60
2023-03-30T22:11:18.345Z,74.30
2023-03-30T22:13:47.932Z,77.50
2023-03-30T22:16:24.474Z,78.20
2023-03-30T22:18:52.342Z,77.50
2023-03-30T22:21:22.202Z,76.30
2023-03-30T22:23:50.472Z,76.00
2023-03-30T22:26:17.588Z,74.30
2023-03-30T22:28:44.839Z,71.60
2023-03-30T22:31:15.204Z,70.90
2023-03-30T22:33:42.530Z,71.50
2023-03-30T22:36:24.477Z,75.20
2023-03-30T22:38:52.184Z,75.20
2023-03-30T22:41:23.828Z,76.10
2023-03-30T22:43:52.029Z,78.60
2023-03-30T22:46:19.089Z,79.30
2023-03-30T22:48:46.045Z,81.00
2023-03-30T22:51:23.487Z,83.80
2023-03-30T22:53:50.555Z,85.40
2023-03-30T22:56:17.469Z,86.10
2023-03-30T22:58:44.762Z,89.50
2023-03-30T23:01:12.182Z,88.60
2023-03-30T23:03:40.404Z,90.00
2023-03-30T23:06:08.078Z,90.50
2023-03-30T23:08:35.540Z,90.60
2023-03-30T23:11:05.100Z,91.20
2023-03-30T23:13:37.377Z,91.00
2023-03-30T23:16:06.624Z,91.80
2023-03-30T23:18:34.724Z,92.90
2023-03-30T23:21:06.281Z,93.80
2023-03-30T23:23:35.556Z,93.30
2023-03-30T23:26:08.743Z,93.80
2023-03-30T23:28:38.723Z,94.90
2023-03-30T23:31:08.955Z,94.10
2023-03-30T23:33:36.009Z,94.30
2023-03-30T23:36:03.034Z,94.80
2023-03-30T23:38:31.574Z,94.70
2023-03-30T23:40:59.343Z,93.90
2023-03-30T23:43:26.593Z,92.90
2023-03-30T23:45:53.658Z,92.10
2023-03-30T23:48:20.610Z,92.00
2023-03-30T23:50:48.596Z,92.00
2023-03-30T23:53:16.283Z,91.90
2023-03-30T23:55:43.201Z,91.70
2023-03-30T23:58:10.234Z,92.00
